Аэропорт
Хомутово (UHSS)

 UHSS / UUS
ЗЦ Хабаровск
Хабаровск (UHHH)
Хабаровск (UHHH)
 46.88870, 142.71800  / 59 ft

 UHSS 202200Z 09001MPS 0600 0450N R01/0650U FZFG VV002 M02/M03 Q1013 R01/CLRD70 NOSIG RMK QBB060 MT OBSC QFE758/1011

uhss_aip_1605
показать схемы
Название сценария Тип сценария Flight Simulator 9 Flight Simulator X Prepar3D v2 Prepar3D v3 Prepar3D v4 xPlane
FSX-UHSS-2015 бесплатный
P3D-UHSS-2015 бесплатный
UHSS-FS9 бесплатный
UHSS_XPL бесплатный


2019 © VATRUS division (Privacy Policy)